createdAt,value
2018-04-28T00:01:29.167Z,2.10
2018-04-28T00:03:55.948Z,2.10
2018-04-28T00:06:22.658Z,1.73
2018-04-28T00:08:49.379Z,1.67
2018-04-28T00:11:16.071Z,2.20
2018-04-28T00:13:42.792Z,2.00
2018-04-28T00:16:11.156Z,2.10
2018-04-28T00:18:40.520Z,1.80
2018-04-28T00:21:07.199Z,1.83
2018-04-28T00:23:33.923Z,1.87
2018-04-28T00:26:01.321Z,2.40
2018-04-28T00:28:46.859Z,1.90
2018-04-28T00:31:31.145Z,2.17
2018-04-28T00:33:58.581Z,1.67
2018-04-28T00:36:46.138Z,2.00
2018-04-28T00:39:12.888Z,2.40
2018-04-28T00:41:39.559Z,2.30
2018-04-28T00:44:10.164Z,2.57
2018-04-28T00:46:36.857Z,2.10
2018-04-28T00:49:03.549Z,2.10
2018-04-28T00:51:32.885Z,2.13
2018-04-28T00:54:05.552Z,2.27
2018-04-28T00:56:32.225Z,2.10
2018-04-28T00:58:59.720Z,2.33
2018-04-28T01:01:27.327Z,1.90
2018-04-28T01:03:53.988Z,1.87
2018-04-28T01:06:20.718Z,2.00
2018-04-28T01:08:47.395Z,2.50
2018-04-28T01:11:29.999Z,1.67
2018-04-28T01:13:59.547Z,2.33
2018-04-28T01:16:27.120Z,1.60
2018-04-28T01:18:54.521Z,2.17
2018-04-28T01:21:36.118Z,1.83
2018-04-28T01:24:04.699Z,1.83
2018-04-28T01:26:36.523Z,2.07
2018-04-28T01:29:05.019Z,1.77
2018-04-28T01:31:32.284Z,1.90
2018-04-28T01:34:06.480Z,1.80
2018-04-28T01:36:34.982Z,2.57
2018-04-28T01:39:05.118Z,2.00
2018-04-28T01:41:35.438Z,1.80
2018-04-28T01:44:04.951Z,2.50
2018-04-28T01:46:31.608Z,1.90
2018-04-28T01:49:00.776Z,1.93
2018-04-28T01:51:29.071Z,2.50
2018-04-28T01:54:11.623Z,2.10
2018-04-28T01:56:41.193Z,1.80
2018-04-28T01:59:08.015Z,1.77
2018-04-28T02:01:37.649Z,1.90
2018-04-28T02:04:07.064Z,2.20
2018-04-28T02:06:52.680Z,2.23
2018-04-28T02:09:21.183Z,2.23
2018-04-28T02:11:48.569Z,1.97
2018-04-28T02:14:32.000Z,1.93
2018-04-28T02:16:58.699Z,2.00
2018-04-28T02:19:26.982Z,3.10
2018-04-28T02:22:01.262Z,1.90
2018-04-28T02:24:30.000Z,2.37
2018-04-28T02:26:59.369Z,2.60
2018-04-28T02:29:40.958Z,2.37
2018-04-28T02:32:07.626Z,2.13
2018-04-28T02:34:37.049Z,1.80
2018-04-28T02:37:09.737Z,2.20
2018-04-28T02:39:42.762Z,2.60
2018-04-28T02:42:11.885Z,2.17
2018-04-28T02:44:40.025Z,2.10
2018-04-28T02:47:09.060Z,2.00
2018-04-28T02:49:39.121Z,3.03
2018-04-28T02:52:05.819Z,2.20
2018-04-28T02:54:35.459Z,2.20
2018-04-28T02:57:09.252Z,2.10
2018-04-28T02:59:36.621Z,2.30
2018-04-28T03:02:21.221Z,2.00
2018-04-28T03:04:50.506Z,3.23
2018-04-28T03:07:18.975Z,2.30
2018-04-28T03:09:46.343Z,2.13
2018-04-28T03:12:13.895Z,2.57
2018-04-28T03:14:41.435Z,2.20
2018-04-28T03:17:24.941Z,1.70
2018-04-28T03:19:52.451Z,2.27
2018-04-28T03:22:19.136Z,1.77
2018-04-28T03:24:47.223Z,2.57
2018-04-28T03:27:15.545Z,2.50
2018-04-28T03:29:58.110Z,2.40
2018-04-28T03:32:30.731Z,2.37
2018-04-28T03:34:57.474Z,2.20
2018-04-28T03:37:28.006Z,1.97
2018-04-28T03:39:57.432Z,2.40
2018-04-28T03:42:25.000Z,1.97
2018-04-28T03:44:51.677Z,2.30
2018-04-28T03:47:39.017Z,2.13
2018-04-28T03:50:09.042Z,2.87
2018-04-28T03:52:37.510Z,3.40
2018-04-28T03:55:05.736Z,2.37
2018-04-28T03:57:38.194Z,2.20
2018-04-28T04:00:11.038Z,2.40
2018-04-28T04:02:43.510Z,2.20
2018-04-28T04:05:13.173Z,2.33
2018-04-28T04:07:41.688Z,2.60
2018-04-28T04:10:14.289Z,2.87
2018-04-28T04:12:46.963Z,2.60
2018-04-28T04:15:19.585Z,2.47
2018-04-28T04:17:52.408Z,2.03
2018-04-28T04:20:29.707Z,2.20
2018-04-28T04:22:57.131Z,2.57
2018-04-28T04:25:29.311Z,2.83
2018-04-28T04:27:56.024Z,2.17
2018-04-28T04:30:27.507Z,2.40
2018-04-28T04:32:55.203Z,2.90
2018-04-28T04:35:26.599Z,2.97
2018-04-28T04:38:09.956Z,2.27
2018-04-28T04:40:36.646Z,2.60
2018-04-28T04:43:09.229Z,3.13
2018-04-28T04:45:51.620Z,2.93
2018-04-28T04:48:24.120Z,2.90
2018-04-28T04:50:57.190Z,2.87
2018-04-28T04:53:24.831Z,2.73
2018-04-28T04:55:57.513Z,3.23
2018-04-28T04:58:39.604Z,2.37
2018-04-28T05:01:12.156Z,2.90
2018-04-28T05:03:38.867Z,2.67
2018-04-28T05:06:11.226Z,2.60
2018-04-28T05:08:53.517Z,2.80
2018-04-28T05:11:21.928Z,2.80
2018-04-28T05:13:49.506Z,3.03
2018-04-28T05:16:25.618Z,2.43
2018-04-28T05:18:56.026Z,2.60
2018-04-28T05:21:37.567Z,2.67
2018-04-28T05:24:10.008Z,2.97
2018-04-28T05:26:36.728Z,2.70
2018-04-28T05:29:09.188Z,3.17
2018-04-28T05:31:56.642Z,3.10
2018-04-28T05:34:29.317Z,2.47
2018-04-28T05:37:12.651Z,2.40
2018-04-28T05:39:45.232Z,2.30
2018-04-28T05:42:15.709Z,2.67
2018-04-28T05:44:54.166Z,3.10
2018-04-28T05:47:22.539Z,2.47
2018-04-28T05:49:52.000Z,2.63
2018-04-28T05:52:24.629Z,2.27
2018-04-28T05:55:15.160Z,2.30
2018-04-28T05:57:47.797Z,2.53
2018-04-28T06:00:20.342Z,2.93
2018-04-28T06:02:58.681Z,2.20
2018-04-28T06:05:28.296Z,2.20
2018-04-28T06:08:10.126Z,2.37
2018-04-28T06:10:42.822Z,2.63
2018-04-28T06:13:12.310Z,2.73
2018-04-28T06:15:54.796Z,2.53
2018-04-28T06:18:35.121Z,2.17
2018-04-28T06:21:02.089Z,2.40
2018-04-28T06:23:28.787Z,2.17
2018-04-28T06:25:55.543Z,2.23
2018-04-28T06:28:22.352Z,2.67
2018-04-28T06:30:49.569Z,2.43
2018-04-28T06:33:16.288Z,2.30
2018-04-28T06:35:43.093Z,2.00
2018-04-28T06:38:09.781Z,2.53
2018-04-28T06:40:36.528Z,2.20
2018-04-28T06:43:03.193Z,2.73
2018-04-28T06:45:29.953Z,2.40
2018-04-28T06:47:56.731Z,2.20
2018-04-28T06:50:23.517Z,2.10
2018-04-28T06:52:50.253Z,2.33
2018-04-28T06:55:17.092Z,2.70
2018-04-28T06:57:43.821Z,2.47
2018-04-28T07:00:10.490Z,1.87
2018-04-28T07:02:37.189Z,2.50
2018-04-28T07:05:04.029Z,2.13
2018-04-28T07:07:30.791Z,2.23
2018-04-28T07:09:57.594Z,2.17
2018-04-28T07:12:24.578Z,2.13
2018-04-28T07:14:51.513Z,2.53
2018-04-28T07:17:18.230Z,1.90
2018-04-28T07:19:44.941Z,2.03
2018-04-28T07:22:11.766Z,2.10
2018-04-28T07:24:38.665Z,1.80
2018-04-28T07:27:05.582Z,1.77
2018-04-28T07:29:32.297Z,1.93
2018-04-28T07:31:59.203Z,1.60
2018-04-28T07:34:26.014Z,1.90
2018-04-28T07:36:52.805Z,1.63
2018-04-28T07:39:19.559Z,2.50
2018-04-28T07:41:46.424Z,1.97
2018-04-28T07:44:13.158Z,1.73
2018-04-28T07:46:39.904Z,1.63
2018-04-28T07:49:07.009Z,1.50
2018-04-28T07:51:33.888Z,1.70
2018-04-28T07:54:00.601Z,2.10
2018-04-28T07:56:27.336Z,1.50
2018-04-28T07:58:54.036Z,2.17
2018-04-28T08:01:21.133Z,1.50
2018-04-28T08:03:47.833Z,1.90
2018-04-28T08:06:14.540Z,2.30
2018-04-28T08:08:41.353Z,1.50
2018-04-28T08:11:08.048Z,1.80
2018-04-28T08:13:34.728Z,1.80
2018-04-28T08:16:01.602Z,1.50
2018-04-28T08:18:28.288Z,1.73
2018-04-28T08:20:54.965Z,1.70
2018-04-28T08:23:21.660Z,1.80
2018-04-28T08:25:48.461Z,1.60
2018-04-28T08:28:15.226Z,2.40
2018-04-28T08:30:41.889Z,1.43
2018-04-28T08:33:08.654Z,1.77
2018-04-28T08:35:35.466Z,2.50
2018-04-28T08:38:02.143Z,2.00
2018-04-28T08:40:28.857Z,1.77
2018-04-28T08:42:55.595Z,2.37
2018-04-28T08:45:22.393Z,1.73
2018-04-28T08:47:49.147Z,2.07
2018-04-28T08:50:15.859Z,1.57
2018-04-28T08:52:42.627Z,1.80
2018-04-28T08:55:09.378Z,1.47
2018-04-28T08:57:36.179Z,1.63
2018-04-28T09:00:08.741Z,1.53
2018-04-28T09:02:35.461Z,1.90
2018-04-28T09:05:02.179Z,1.57
2018-04-28T09:07:30.034Z,1.27
2018-04-28T09:09:56.944Z,1.77
2018-04-28T09:12:23.759Z,1.50
2018-04-28T09:14:50.480Z,1.33
2018-04-28T09:17:17.239Z,1.40
2018-04-28T09:19:43.967Z,1.30
2018-04-28T09:22:10.697Z,1.83
2018-04-28T09:24:37.424Z,1.50
2018-04-28T09:27:04.267Z,1.60
2018-04-28T09:29:31.157Z,1.20
2018-04-28T09:31:57.986Z,1.60
2018-04-28T09:34:25.139Z,1.40
2018-04-28T09:36:51.938Z,0.90
2018-04-28T09:39:18.640Z,1.20
2018-04-28T09:41:45.448Z,1.00
2018-04-28T09:44:12.149Z,1.40
2018-04-28T09:46:38.944Z,1.03
2018-04-28T09:49:06.619Z,1.13
2018-04-28T09:51:33.355Z,0.93
2018-04-28T09:54:00.037Z,1.00
2018-04-28T09:56:26.797Z,1.47
2018-04-28T09:58:53.615Z,0.90
2018-04-28T10:01:20.278Z,0.97
2018-04-28T10:03:53.775Z,1.83
2018-04-28T10:06:20.577Z,1.50
2018-04-28T10:08:47.447Z,1.37
2018-04-28T10:11:14.152Z,1.40
2018-04-28T10:13:40.910Z,1.03
2018-04-28T10:16:07.629Z,1.57
2018-04-28T10:18:34.381Z,1.43
2018-04-28T10:21:01.083Z,1.30
2018-04-28T10:23:28.044Z,1.40
2018-04-28T10:25:54.898Z,1.30
2018-04-28T10:28:21.606Z,1.40
2018-04-28T10:30:48.421Z,1.47
2018-04-28T10:33:15.079Z,1.33
2018-04-28T10:35:41.766Z,1.43
2018-04-28T10:38:08.677Z,1.10
2018-04-28T10:40:35.357Z,1.90
2018-04-28T10:43:02.089Z,1.17
2018-04-28T10:45:28.805Z,1.30
2018-04-28T10:47:55.524Z,1.23
2018-04-28T10:50:22.245Z,1.30
2018-04-28T10:52:48.989Z,2.50
2018-04-28T10:55:15.679Z,1.03
2018-04-28T10:57:42.506Z,1.20
2018-04-28T11:00:09.242Z,2.03
2018-04-28T11:02:35.940Z,1.30
2018-04-28T11:05:02.658Z,1.17
2018-04-28T11:07:29.368Z,1.20
2018-04-28T11:09:56.199Z,1.27
2018-04-28T11:12:22.898Z,1.00
2018-04-28T11:14:49.745Z,1.10
2018-04-28T11:17:17.343Z,1.23
2018-04-28T11:19:44.156Z,1.60
2018-04-28T11:22:10.849Z,1.90
2018-04-28T11:24:37.540Z,1.07
2018-04-28T11:27:04.249Z,1.00
2018-04-28T11:29:30.944Z,1.37
2018-04-28T11:31:57.724Z,1.37
2018-04-28T11:34:24.378Z,1.10
2018-04-28T11:36:51.152Z,2.00
2018-04-28T11:39:17.866Z,1.30
2018-04-28T11:41:44.586Z,1.87
2018-04-28T11:44:11.294Z,1.50
2018-04-28T11:46:38.084Z,2.00
2018-04-28T11:49:04.844Z,1.60
2018-04-28T11:51:31.639Z,1.23
2018-04-28T11:53:58.437Z,1.07
2018-04-28T11:56:25.226Z,1.50
2018-04-28T11:58:52.274Z,1.27
2018-04-28T12:01:18.991Z,1.80
2018-04-28T12:03:45.728Z,1.60
2018-04-28T12:06:12.474Z,1.23
2018-04-28T12:08:39.198Z,1.80
2018-04-28T12:11:05.934Z,1.37
2018-04-28T12:13:32.766Z,1.57
2018-04-28T12:15:59.456Z,1.80
2018-04-28T12:18:26.171Z,1.30
2018-04-28T12:20:52.937Z,1.40
2018-04-28T12:23:19.589Z,1.20
2018-04-28T12:25:46.401Z,1.20
2018-04-28T12:28:13.098Z,1.67
2018-04-28T12:30:39.941Z,1.27
2018-04-28T12:33:06.630Z,1.60
2018-04-28T12:35:33.324Z,1.37
2018-04-28T12:38:00.030Z,1.20
2018-04-28T12:40:26.740Z,1.30
2018-04-28T12:42:53.445Z,1.10
2018-04-28T12:45:20.180Z,1.20
2018-04-28T12:47:46.854Z,1.20
2018-04-28T12:50:13.876Z,1.50
2018-04-28T12:52:40.553Z,1.57
2018-04-28T12:55:07.210Z,1.20
2018-04-28T12:57:33.946Z,1.23
2018-04-28T13:00:00.627Z,1.67
2018-04-28T13:02:27.326Z,1.20
2018-04-28T13:04:54.025Z,1.10
2018-04-28T13:07:20.767Z,1.23
2018-04-28T13:09:47.479Z,1.10
2018-04-28T13:12:14.248Z,1.77
2018-04-28T13:14:40.944Z,1.33
2018-04-28T13:17:07.609Z,1.17
2018-04-28T13:19:34.284Z,1.20
2018-04-28T13:22:00.987Z,1.30
2018-04-28T13:24:27.676Z,1.40
2018-04-28T13:26:54.359Z,1.10
2018-04-28T13:29:21.082Z,1.10
2018-04-28T13:31:47.783Z,1.30
2018-04-28T13:34:14.509Z,1.10
2018-04-28T13:36:41.232Z,1.37
2018-04-28T13:39:07.979Z,1.77
2018-04-28T13:41:34.719Z,1.57
2018-04-28T13:44:01.396Z,1.90
2018-04-28T13:46:28.908Z,1.20
2018-04-28T13:48:55.593Z,1.40
2018-04-28T13:51:22.989Z,1.13
2018-04-28T13:53:49.692Z,1.30
2018-04-28T13:56:16.406Z,1.10
2018-04-28T13:58:43.686Z,1.40
2018-04-28T14:01:10.396Z,1.03
2018-04-28T14:03:37.109Z,1.00
2018-04-28T14:06:03.972Z,3.10
2018-04-28T14:08:30.683Z,1.30
2018-04-28T14:10:57.371Z,0.90
2018-04-28T14:13:24.269Z,1.30
2018-04-28T14:15:50.984Z,1.47
2018-04-28T14:18:17.687Z,1.27
2018-04-28T14:20:44.415Z,1.00
2018-04-28T14:23:11.119Z,1.10
2018-04-28T14:25:37.866Z,1.27
2018-04-28T14:28:04.876Z,1.50
2018-04-28T14:30:31.582Z,1.27
2018-04-28T14:32:58.362Z,1.13
2018-04-28T14:35:25.096Z,1.10
2018-04-28T14:37:51.802Z,1.70
2018-04-28T14:40:18.486Z,0.90
2018-04-28T14:42:45.241Z,1.80
2018-04-28T14:45:11.949Z,1.47
2018-04-28T14:47:38.830Z,1.67
2018-04-28T14:50:05.524Z,1.33
2018-04-28T14:52:32.341Z,1.37
2018-04-28T14:54:59.083Z,1.43
2018-04-28T14:57:25.796Z,2.33
2018-04-28T14:59:52.672Z,1.10
2018-04-28T15:02:19.519Z,1.80
2018-04-28T15:04:46.389Z,1.00
2018-04-28T15:07:13.247Z,1.13
2018-04-28T15:09:40.318Z,0.90
2018-04-28T15:12:07.338Z,1.53
2018-04-28T15:14:34.219Z,0.98
2018-04-28T15:17:01.344Z,1.10
2018-04-28T15:19:28.248Z,0.90
2018-04-28T15:21:55.186Z,1.33
2018-04-28T15:24:22.181Z,1.98
2018-04-28T15:26:49.046Z,0.90
2018-04-28T15:29:15.987Z,1.42
2018-04-28T15:31:42.919Z,1.77
2018-04-28T15:34:09.765Z,1.00
2018-04-28T15:36:36.601Z,1.00
2018-04-28T15:39:03.570Z,1.30
2018-04-28T15:41:30.668Z,1.00
2018-04-28T15:43:57.519Z,1.00
2018-04-28T15:46:24.636Z,1.17
2018-04-28T15:48:51.397Z,1.10
2018-04-28T15:51:18.186Z,0.70
2018-04-28T15:53:45.043Z,1.70
2018-04-28T15:56:12.075Z,0.90
2018-04-28T15:58:39.273Z,1.33
2018-04-28T16:01:06.377Z,0.83
2018-04-28T16:03:33.371Z,1.47
2018-04-28T16:06:00.216Z,1.13
2018-04-28T16:08:27.100Z,1.00
2018-04-28T16:10:54.251Z,1.27
2018-04-28T16:13:21.107Z,1.23
2018-04-28T16:15:47.832Z,1.00
2018-04-28T16:18:14.676Z,1.57
2018-04-28T16:20:41.476Z,1.97
2018-04-28T16:23:08.195Z,0.97
2018-04-28T16:25:34.927Z,1.07
2018-04-28T16:28:02.204Z,0.87
2018-04-28T16:30:29.454Z,0.93
2018-04-28T16:32:56.183Z,1.00
2018-04-28T16:35:22.892Z,1.13
2018-04-28T16:37:49.709Z,1.10
2018-04-28T16:40:16.420Z,1.00
2018-04-28T16:42:43.427Z,1.10
2018-04-28T16:45:16.125Z,1.20
2018-04-28T16:47:42.870Z,1.67
2018-04-28T16:50:09.597Z,1.00
2018-04-28T16:52:36.306Z,1.20
2018-04-28T16:55:03.301Z,1.90
2018-04-28T16:57:30.471Z,1.13
2018-04-28T16:59:58.025Z,0.90
2018-04-28T17:02:25.003Z,1.45
2018-04-28T17:04:51.868Z,1.40
2018-04-28T17:07:18.570Z,1.57
2018-04-28T17:09:47.136Z,1.77
2018-04-28T17:12:16.245Z,1.00
2018-04-28T17:14:44.298Z,1.10
2018-04-28T17:19:48.002Z,1.00
2018-04-28T17:22:14.828Z,1.10
2018-04-28T17:24:41.516Z,1.27
2018-04-28T17:27:08.266Z,1.30
2018-04-28T17:29:35.034Z,0.97
2018-04-28T17:32:01.822Z,1.20
2018-04-28T17:34:28.514Z,1.10
2018-04-28T17:36:55.781Z,1.63
2018-04-28T17:39:22.925Z,1.20
2018-04-28T17:44:22.656Z,1.27
2018-04-28T17:46:49.334Z,1.33
2018-04-28T17:49:16.119Z,1.47
2018-04-28T17:51:42.826Z,1.37
2018-04-28T17:54:09.529Z,1.33
2018-04-28T17:56:36.263Z,1.47
2018-04-28T17:59:02.954Z,2.27
2018-04-28T18:01:29.612Z,1.20
2018-04-28T18:03:57.126Z,1.50
2018-04-28T18:06:23.825Z,1.20
2018-04-28T18:08:50.546Z,1.80
2018-04-28T18:11:17.322Z,1.30
2018-04-28T18:13:43.994Z,1.40
2018-04-28T18:16:10.799Z,1.17
2018-04-28T18:18:37.496Z,1.40
2018-04-28T18:21:04.256Z,1.50
2018-04-28T18:23:30.921Z,1.10
2018-04-28T18:25:57.630Z,1.60
2018-04-28T18:28:24.326Z,1.23
2018-04-28T18:30:51.031Z,1.57
2018-04-28T18:33:17.770Z,2.57
2018-04-28T18:35:44.514Z,1.87
2018-04-28T18:38:11.296Z,1.50
2018-04-28T18:40:38.027Z,1.40
2018-04-28T18:43:04.882Z,1.60
2018-04-28T18:45:31.605Z,1.60
2018-04-28T18:47:58.327Z,3.80
2018-04-28T18:50:24.998Z,2.17
2018-04-28T18:52:51.748Z,2.30
2018-04-28T18:55:18.446Z,2.83
2018-04-28T18:57:45.240Z,1.60
2018-04-28T19:00:11.970Z,1.60
2018-04-28T19:02:38.728Z,2.00
2018-04-28T19:05:05.410Z,2.70
2018-04-28T19:07:32.113Z,1.43
2018-04-28T19:09:58.793Z,1.57
2018-04-28T19:12:25.459Z,1.93
2018-04-28T19:14:52.183Z,1.90
2018-04-28T19:17:18.855Z,1.40
2018-04-28T19:19:45.544Z,1.33
2018-04-28T19:22:12.286Z,1.80
2018-04-28T19:24:39.104Z,1.80
2018-04-28T19:27:05.784Z,1.60
2018-04-28T19:29:32.458Z,1.40
2018-04-28T19:31:59.162Z,1.80
2018-04-28T19:34:25.820Z,2.00
2018-04-28T19:36:52.526Z,1.57
2018-04-28T19:39:19.265Z,1.83
2018-04-28T19:41:45.993Z,1.30
2018-04-28T19:44:12.719Z,1.90
2018-04-28T19:46:39.420Z,1.70
2018-04-28T19:49:06.132Z,2.20
2018-04-28T19:51:32.835Z,1.93
2018-04-28T19:53:59.622Z,1.80
2018-04-28T19:56:26.309Z,1.60
2018-04-28T19:58:53.050Z,1.90
2018-04-28T20:01:19.715Z,1.70
2018-04-28T20:03:46.449Z,2.07
2018-04-28T20:06:13.120Z,2.83
2018-04-28T20:08:39.799Z,1.50
2018-04-28T20:11:06.578Z,2.07
2018-04-28T20:13:33.265Z,1.80
2018-04-28T20:16:00.089Z,2.00
2018-04-28T20:18:26.790Z,3.57
2018-04-28T20:20:53.530Z,2.67
2018-04-28T20:23:26.102Z,1.90
2018-04-28T20:25:52.825Z,3.77
2018-04-28T20:28:19.499Z,4.23
2018-04-28T20:30:46.260Z,4.10
2018-04-28T20:33:12.991Z,3.63
2018-04-28T20:35:39.854Z,3.03
2018-04-28T20:38:06.525Z,2.23
2018-04-28T20:40:33.218Z,2.90
2018-04-28T20:42:59.947Z,5.20
2018-04-28T20:45:26.673Z,4.00
2018-04-28T20:47:53.352Z,2.50
2018-04-28T20:50:20.431Z,2.10
2018-04-28T20:52:47.108Z,2.50
2018-04-28T20:55:13.777Z,1.97
2018-04-28T20:57:40.503Z,2.47
2018-04-28T21:00:07.206Z,2.93
2018-04-28T21:02:33.929Z,2.67
2018-04-28T21:05:00.751Z,2.03
2018-04-28T21:07:27.485Z,3.40
2018-04-28T21:09:54.253Z,2.93
2018-04-28T21:12:21.019Z,2.50
2018-04-28T21:14:47.734Z,2.80
2018-04-28T21:17:14.441Z,2.20
2018-04-28T21:19:41.176Z,2.57
2018-04-28T21:22:07.829Z,2.40
2018-04-28T21:24:34.513Z,2.80
2018-04-28T21:27:01.216Z,2.70
2018-04-28T21:29:28.690Z,3.10
2018-04-28T21:31:55.415Z,3.00
2018-04-28T21:34:22.160Z,2.60
2018-04-28T21:36:48.863Z,3.03
2018-04-28T21:39:15.580Z,2.90
2018-04-28T21:41:42.275Z,3.77
2018-04-28T21:44:09.019Z,3.30
2018-04-28T21:46:35.693Z,2.97
2018-04-28T21:49:02.428Z,2.80
2018-04-28T21:51:29.101Z,2.90
2018-04-28T21:53:55.849Z,3.63
2018-04-28T21:56:22.533Z,3.57
2018-04-28T21:58:49.325Z,3.03
2018-04-28T22:01:15.988Z,3.07
2018-04-28T22:03:43.584Z,3.17
2018-04-28T22:06:10.301Z,3.17
2018-04-28T22:08:37.001Z,2.87
2018-04-28T22:11:04.438Z,3.17
2018-04-28T22:13:31.113Z,3.60
2018-04-28T22:15:57.827Z,3.07
2018-04-28T22:18:24.493Z,3.60
2018-04-28T22:20:51.177Z,3.80
2018-04-28T22:23:17.850Z,3.13
2018-04-28T22:25:45.216Z,3.23
2018-04-28T22:28:12.635Z,3.80
2018-04-28T22:30:40.729Z,4.93
2018-04-28T22:33:07.654Z,4.10
2018-04-28T22:35:35.240Z,3.00
2018-04-28T22:38:02.315Z,3.40
2018-04-28T22:40:29.166Z,3.43
2018-04-28T22:42:56.071Z,3.37
2018-04-28T22:45:23.930Z,3.13
2018-04-28T22:47:51.858Z,3.60
2018-04-28T22:50:18.873Z,3.40
2018-04-28T22:52:45.814Z,3.50
2018-04-28T22:55:13.901Z,4.50
2018-04-28T22:57:40.689Z,3.43
2018-04-28T23:00:07.366Z,4.70
2018-04-28T23:02:34.069Z,3.50
2018-04-28T23:05:00.760Z,3.50
2018-04-28T23:07:27.464Z,3.23
2018-04-28T23:09:54.140Z,3.50
2018-04-28T23:12:20.873Z,3.20
2018-04-28T23:14:47.551Z,4.03
2018-04-28T23:17:14.212Z,3.27
2018-04-28T23:19:40.926Z,3.30
2018-04-28T23:22:07.612Z,3.40
2018-04-28T23:24:34.302Z,4.00
2018-04-28T23:27:00.984Z,3.23
2018-04-28T23:29:27.664Z,3.90
2018-04-28T23:31:54.414Z,4.43
2018-04-28T23:34:21.110Z,3.93
2018-04-28T23:36:47.812Z,3.87
2018-04-28T23:39:14.504Z,3.57
2018-04-28T23:41:41.225Z,3.50
2018-04-28T23:44:07.942Z,3.27
2018-04-28T23:46:34.743Z,2.90
2018-04-28T23:49:01.454Z,2.93
2018-04-28T23:51:28.123Z,3.53
2018-04-28T23:53:54.825Z,3.60
2018-04-28T23:56:21.529Z,3.07
2018-04-28T23:58:48.228Z,3.13
